Time;durP1;ratioP1;P1;durP2;ratioP2;P2;SDS_P1;SDS_P2;PMS_P1;PMS_P2;Temp;Humidity;BMP_temperature;BMP_pressure;BME280_temperature;BME280_humidity;BME280_pressure;Samples;Min_cycle;Max_cycle;Signal;HPM_P1;HPM_P2
2023/12/28 00:00:35;;;;;;;23.00;11.98;;;1.50;99.90;;;;;;5052526;28;20029;-61
2023/12/28 00:03:00;;;;;;;23.38;12.00;;;1.50;99.90;;;;;;5052544;28;20056;-61
2023/12/28 00:05:26;;;;;;;19.98;11.57;;;1.50;99.90;;;;;;5053717;28;20372;-61
2023/12/28 00:07:57;;;;;;;23.90;12.50;;;1.50;99.90;;;;;;5053721;28;20025;-61
2023/12/28 00:10:24;;;;;;;20.45;12.02;;;1.50;99.90;;;;;;5053789;28;20036;-62
2023/12/28 00:12:50;;;;;;;21.73;11.93;;;1.40;99.90;;;;;;5053983;28;20021;-61
2023/12/28 00:15:16;;;;;;;22.92;12.63;;;1.40;99.90;;;;;;5053357;28;20379;-61
2023/12/28 00:17:41;;;;;;;20.95;11.68;;;1.50;99.90;;;;;;5056050;28;20025;-61
2023/12/28 00:20:07;;;;;;;23.90;11.82;;;1.50;99.90;;;;;;5056389;28;20033;-61
2023/12/28 00:22:33;;;;;;;23.80;12.30;;;1.50;99.90;;;;;;5057768;28;20031;-62
2023/12/28 00:24:59;;;;;;;23.88;12.32;;;1.50;99.90;;;;;;5058020;28;20364;-61
2023/12/28 00:27:25;;;;;;;22.95;12.23;;;1.50;99.90;;;;;;5057908;28;20025;-61
2023/12/28 00:29:50;;;;;;;23.88;11.65;;;1.50;99.90;;;;;;5056405;28;20032;-61
2023/12/28 00:32:16;;;;;;;22.92;12.48;;;1.40;99.90;;;;;;5058922;28;20409;-62
2023/12/28 00:34:41;;;;;;;20.67;11.07;;;1.40;99.90;;;;;;5058697;28;20028;-61
2023/12/28 00:37:07;;;;;;;23.83;12.52;;;1.40;99.90;;;;;;5058607;28;20036;-62
2023/12/28 00:39:34;;;;;;;22.67;11.80;;;1.40;99.90;;;;;;5057882;28;20460;-61
2023/12/28 00:42:00;;;;;;;21.33;12.10;;;1.30;99.90;;;;;;5057518;28;20017;-62
2023/12/28 00:44:25;;;;;;;21.13;11.88;;;1.30;99.90;;;;;;5056042;28;20455;-61
2023/12/28 00:46:51;;;;;;;26.70;13.82;;;1.30;99.90;;;;;;5056975;28;20031;-61
2023/12/28 00:49:16;;;;;;;25.70;12.07;;;1.30;99.90;;;;;;5055931;28;20033;-61
2023/12/28 00:51:42;;;;;;;21.20;11.73;;;1.30;99.90;;;;;;5055661;28;20362;-62
2023/12/28 00:54:08;;;;;;;22.27;12.15;;;1.30;99.90;;;;;;5057007;28;20071;-61
2023/12/28 00:56:33;;;;;;;24.27;12.60;;;1.30;99.90;;;;;;5057071;28;20021;-61
2023/12/28 00:59:01;;;;;;;27.88;13.65;;;1.30;99.90;;;;;;5056904;28;20436;-61
2023/12/28 01:01:27;;;;;;;23.90;12.32;;;1.40;99.90;;;;;;5056954;28;20023;-61
2023/12/28 01:03:52;;;;;;;26.15;11.98;;;1.40;99.90;;;;;;5056904;28;20360;-61
2023/12/28 01:06:18;;;;;;;24.48;11.95;;;1.40;99.90;;;;;;5057322;28;20521;-62
2023/12/28 01:08:44;;;;;;;24.90;12.50;;;1.40;99.90;;;;;;5057390;28;20025;-62
2023/12/28 01:11:12;;;;;;;26.67;11.90;;;1.40;99.90;;;;;;5057236;28;20036;-62
2023/12/28 01:13:37;;;;;;;24.70;11.17;;;1.40;99.90;;;;;;5056977;28;20052;-62
2023/12/28 01:16:04;;;;;;;24.38;13.05;;;1.40;99.90;;;;;;5057147;28;20495;-61
2023/12/28 01:18:29;;;;;;;23.20;11.70;;;1.40;99.90;;;;;;5056763;28;20079;-61
2023/12/28 01:20:55;;;;;;;23.65;12.35;;;1.40;99.90;;;;;;5057006;28;20079;-61
2023/12/28 01:23:21;;;;;;;27.48;10.90;;;1.50;99.90;;;;;;5056901;28;20530;-62
2023/12/28 01:25:46;;;;;;;22.38;11.77;;;1.50;99.90;;;;;;5056781;28;20147;-61
2023/12/28 01:28:12;;;;;;;26.90;11.85;;;1.50;99.90;;;;;;5055633;28;20025;-61
2023/12/28 01:30:38;;;;;;;29.58;12.00;;;1.60;99.90;;;;;;5056356;28;20029;-61
2023/12/28 01:33:04;;;;;;;24.58;11.77;;;1.60;99.90;;;;;;5056476;28;20032;-61
2023/12/28 01:35:29;;;;;;;22.63;12.23;;;1.70;99.90;;;;;;5056158;28;20108;-61
2023/12/28 01:37:55;;;;;;;23.67;12.25;;;1.70;99.90;;;;;;5056301;28;20056;-61
2023/12/28 01:40:21;;;;;;;22.90;11.73;;;1.80;99.90;;;;;;5055021;28;20041;-61
2023/12/28 01:42:47;;;;;;;25.95;12.73;;;1.90;99.90;;;;;;5055949;28;20036;-61
2023/12/28 01:45:12;;;;;;;23.83;11.85;;;1.90;99.90;;;;;;5056468;28;20465;-61
2023/12/28 01:47:38;;;;;;;26.83;11.75;;;1.90;99.90;;;;;;5056099;28;20100;-61
2023/12/28 01:50:06;;;;;;;31.88;13.68;;;2.10;99.90;;;;;;5056140;28;20044;-61
2023/12/28 01:52:32;;;;;;;26.27;12.83;;;2.10;99.90;;;;;;5054458;28;20068;-61
2023/12/28 01:54:58;;;;;;;32.80;13.25;;;2.10;99.90;;;;;;5055815;28;20731;-61
2023/12/28 01:57:24;;;;;;;34.50;14.55;;;2.10;99.90;;;;;;5055935;28;20021;-61
2023/12/28 01:59:50;;;;;;;40.38;15.13;;;2.10;99.90;;;;;;5055808;28;20033;-61
2023/12/28 02:02:16;;;;;;;34.47;15.45;;;2.20;99.90;;;;;;5055857;28;20025;-62
2023/12/28 02:04:43;;;;;;;33.75;14.30;;;2.30;99.90;;;;;;5054505;28;20033;-61
2023/12/28 02:07:09;;;;;;;37.97;14.10;;;2.20;99.90;;;;;;5055640;28;20155;-61
2023/12/28 02:09:35;;;;;;;36.83;14.63;;;2.30;99.90;;;;;;5056017;28;20037;-61
2023/12/28 02:12:01;;;;;;;36.78;15.25;;;2.30;99.90;;;;;;5055643;28;20033;-61
2023/12/28 02:14:26;;;;;;;42.72;16.08;;;2.30;99.90;;;;;;5054534;28;20473;-61
2023/12/28 02:17:12;;;;;;;41.67;15.85;;;2.40;99.90;;;;;;5055840;28;20025;-61
2023/12/28 02:19:44;;;;;;;42.05;15.98;;;2.40;99.90;;;;;;5055206;28;20084;-61
2023/12/28 02:22:13;;;;;;;40.60;15.15;;;2.50;99.90;;;;;;5054164;28;20461;-61
2023/12/28 02:25:05;;;;;;;34.10;14.25;;;2.50;99.90;;;;;;5055215;28;20025;-61
2023/12/28 02:27:32;;;;;;;35.47;16.20;;;2.60;99.90;;;;;;5054274;28;20381;-61
2023/12/28 02:29:57;;;;;;;33.30;14.50;;;2.60;99.90;;;;;;5055301;28;20029;-61
2023/12/28 02:32:35;;;;;;;38.17;14.63;;;2.60;99.90;;;;;;5054472;28;20031;-61
2023/12/28 02:35:13;;;;;;;43.40;16.80;;;2.70;99.90;;;;;;5054213;28;20025;-61
2023/12/28 02:37:39;;;;;;;46.60;15.25;;;2.70;99.90;;;;;;5055474;28;20358;-61
2023/12/28 02:40:06;;;;;;;40.70;16.42;;;2.80;99.90;;;;;;5055020;28;20040;-62
2023/12/28 02:42:32;;;;;;;44.67;17.00;;;2.80;99.90;;;;;;5053765;28;20025;-62
2023/12/28 02:44:57;;;;;;;34.47;15.85;;;2.80;99.90;;;;;;5055018;28;20033;-61
2023/12/28 02:47:23;;;;;;;39.17;15.90;;;2.80;99.90;;;;;;5054968;28;20017;-61
2023/12/28 02:49:48;;;;;;;43.42;16.27;;;2.80;99.90;;;;;;5055120;28;20461;-61
2023/12/28 02:52:14;;;;;;;37.28;16.80;;;2.90;99.90;;;;;;5054882;28;20072;-61
2023/12/28 02:54:40;;;;;;;43.33;16.33;;;2.80;99.90;;;;;;5054533;28;20021;-61
2023/12/28 02:57:05;;;;;;;35.28;16.15;;;2.90;99.90;;;;;;5054775;28;20499;-62
2023/12/28 02:59:31;;;;;;;37.05;13.55;;;2.90;99.90;;;;;;5054659;28;20040;-61
2023/12/28 03:01:56;;;;;;;35.92;15.77;;;2.90;99.90;;;;;;5054700;28;20068;-61
2023/12/28 03:04:22;;;;;;;37.75;16.30;;;2.90;99.90;;;;;;5054885;28;20025;-61
2023/12/28 03:06:47;;;;;;;47.67;15.73;;;2.90;99.90;;;;;;5053348;28;20094;-62
2023/12/28 03:09:13;;;;;;;43.97;17.30;;;2.80;99.90;;;;;;5054289;28;20032;-61
2023/12/28 03:11:39;;;;;;;53.28;17.23;;;2.80;99.90;;;;;;5054220;28;20025;-61
2023/12/28 03:14:04;;;;;;;40.10;17.58;;;2.80;99.90;;;;;;5054271;28;20495;-61
2023/12/28 03:16:30;;;;;;;50.75;16.58;;;2.80;99.90;;;;;;5054515;28;20025;-62
2023/12/28 03:18:55;;;;;;;48.55;16.92;;;2.80;99.90;;;;;;5054296;28;20040;-61
2023/12/28 03:21:21;;;;;;;45.78;16.48;;;2.90;99.90;;;;;;5054631;28;20029;-61
2023/12/28 03:23:47;;;;;;;38.85;15.55;;;3.00;99.90;;;;;;5053029;28;20090;-61
2023/12/28 03:26:12;;;;;;;59.05;19.38;;;2.90;99.90;;;;;;5054260;28;20021;-61
2023/12/28 03:28:38;;;;;;;57.33;17.27;;;3.00;99.90;;;;;;5054242;28;20033;-61
2023/12/28 03:31:03;;;;;;;52.22;17.15;;;2.90;99.90;;;;;;5053337;28;20033;-61
2023/12/28 03:33:29;;;;;;;53.65;19.65;;;2.90;99.90;;;;;;5054162;28;20029;-61
2023/12/28 03:35:55;;;;;;;50.22;17.15;;;2.90;99.90;;;;;;5053848;28;20036;-61
2023/12/28 03:38:21;;;;;;;52.70;17.55;;;3.00;99.90;;;;;;5054273;28;20476;-61
2023/12/28 03:40:47;;;;;;;48.38;17.60;;;3.00;99.90;;;;;;5053772;28;20033;-61
2023/12/28 03:43:13;;;;;;;58.40;18.10;;;3.10;99.90;;;;;;5052749;28;20469;-61
2023/12/28 03:45:39;;;;;;;82.28;20.48;;;3.10;99.90;;;;;;5054246;28;20127;-61
2023/12/28 03:48:04;;;;;;;68.68;19.27;;;3.00;99.90;;;;;;5053622;28;20025;-61
2023/12/28 03:50:30;;;;;;;62.20;17.38;;;3.10;99.90;;;;;;5052684;28;20036;-61
2023/12/28 03:52:56;;;;;;;56.78;18.50;;;3.10;99.90;;;;;;5053075;28;20053;-61
2023/12/28 03:55:21;;;;;;;108.85;19.80;;;3.10;99.90;;;;;;5053856;28;20029;-62
2023/12/28 03:57:47;;;;;;;64.30;19.45;;;3.10;99.90;;;;;;5055094;28;20416;-62
2023/12/28 04:00:14;;;;;;;50.58;18.02;;;3.10;99.90;;;;;;5055004;28;20071;-63
2023/12/28 04:02:40;;;;;;;38.95;17.52;;;3.10;99.90;;;;;;5055152;28;20432;-62
2023/12/28 04:05:07;;;;;;;48.30;17.80;;;3.20;99.90;;;;;;5053598;28;20057;-62
2023/12/28 04:07:32;;;;;;;59.75;17.70;;;3.20;99.90;;;;;;5052598;28;20060;-61
2023/12/28 04:09:58;;;;;;;58.08;16.67;;;3.20;99.90;;;;;;5053439;28;20032;-62
2023/12/28 04:12:24;;;;;;;51.90;16.55;;;3.20;99.90;;;;;;5052363;28;20452;-61
2023/12/28 04:14:49;;;;;;;58.13;16.63;;;3.10;99.90;;;;;;5053627;28;20027;-61
2023/12/28 04:17:15;;;;;;;65.25;16.00;;;3.10;99.90;;;;;;5053907;28;20362;-61
2023/12/28 04:19:41;;;;;;;39.67;15.90;;;3.10;99.90;;;;;;5053234;28;20032;-62
2023/12/28 04:22:29;;;;;;;66.68;17.40;;;3.10;99.90;;;;;;5053470;28;20029;-61
2023/12/28 04:24:58;;;;;;;;;;;3.00;99.90;;;;;;5054393;28;20465;-61
2023/12/28 04:27:23;;;;;;;47.55;14.38;;;3.00;99.90;;;;;;5053735;28;19905;-61
2023/12/28 04:29:49;;;;;;;50.58;15.02;;;2.90;99.90;;;;;;5053462;28;20064;-61
2023/12/28 04:32:15;;;;;;;34.58;14.30;;;2.80;99.90;;;;;;5053648;28;20098;-61
2023/12/28 04:34:43;;;;;;;31.00;14.20;;;2.80;99.90;;;;;;5052176;28;20025;-62
2023/12/28 04:37:08;;;;;;;23.75;13.70;;;2.80;99.90;;;;;;5053772;28;20454;-61
2023/12/28 04:39:37;;;;;;;32.83;13.48;;;2.80;99.90;;;;;;5053540;28;20044;-61
2023/12/28 04:42:23;;;;;;;32.83;14.75;;;2.70;99.90;;;;;;5053388;28;20025;-61
2023/12/28 04:44:49;;;;;;;29.90;14.07;;;2.70;99.90;;;;;;5053239;28;20393;-61
2023/12/28 04:47:18;;;;;;;37.95;15.07;;;2.70;99.90;;;;;;5053618;28;20025;-61
2023/12/28 04:49:49;;;;;;;;;;;2.70;99.90;;;;;;5053745;28;20071;-61
2023/12/28 04:52:21;;;;;;;35.85;13.70;;;2.60;99.90;;;;;;5053869;28;19960;-62
2023/12/28 04:54:52;;;;;;;36.25;14.95;;;2.60;99.90;;;;;;5053597;28;20044;-61
2023/12/28 04:57:28;;;;;;;39.30;14.90;;;2.70;99.90;;;;;;5053933;28;20033;-61
2023/12/28 04:59:56;;;;;;;35.67;14.30;;;2.70;99.90;;;;;;5053275;28;20116;-61
2023/12/28 05:02:24;;;;;;;29.20;14.32;;;2.70;99.90;;;;;;5053250;28;20028;-61
2023/12/28 05:05:14;;;;;;;31.40;14.80;;;2.70;99.90;;;;;;5055575;28;20029;-61
2023/12/28 05:07:39;;;;;;;;;;;2.70;99.90;;;;;;5057047;28;20403;-61
2023/12/28 05:10:05;;;;;;;45.88;14.82;;;2.70;99.90;;;;;;5056876;28;19909;-61
2023/12/28 05:12:31;;;;;;;41.80;14.52;;;2.70;99.90;;;;;;5056886;28;20365;-61
2023/12/28 05:14:57;;;;;;;35.80;14.85;;;2.70;99.90;;;;;;5056735;28;20457;-61
2023/12/28 05:17:22;;;;;;;91.80;16.35;;;2.60;99.90;;;;;;5056432;28;20033;-61
2023/12/28 05:19:48;;;;;;;88.57;15.23;;;2.70;99.90;;;;;;5055324;28;20033;-61
2023/12/28 05:22:13;;;;;;;57.65;14.23;;;2.60;99.90;;;;;;5056852;28;20031;-62
2023/12/28 05:24:39;;;;;;;52.22;15.40;;;2.60;99.90;;;;;;5056968;28;20063;-61
2023/12/28 05:27:05;;;;;;;39.55;15.20;;;2.60;99.90;;;;;;5056522;28;20125;-61
2023/12/28 05:29:30;;;;;;;30.13;13.90;;;2.60;99.90;;;;;;5055219;28;20419;-61
2023/12/28 05:31:56;;;;;;;30.42;13.88;;;2.60;99.90;;;;;;5056483;28;20534;-61
2023/12/28 05:34:21;;;;;;;31.55;13.82;;;2.70;99.90;;;;;;5055097;28;20032;-61
2023/12/28 05:36:53;;;;;;;33.63;13.77;;;2.60;99.90;;;;;;5055072;28;20190;-61
2023/12/28 05:39:18;;;;;;;31.58;12.85;;;2.60;99.90;;;;;;5056666;28;20064;-61
2023/12/28 05:41:47;;;;;;;45.15;13.85;;;2.60;99.90;;;;;;5056427;28;20457;-61
2023/12/28 05:44:14;;;;;;;50.53;13.50;;;2.60;99.90;;;;;;5054956;28;20030;-61
2023/12/28 05:46:39;;;;;;;46.42;14.07;;;2.50;99.90;;;;;;5056135;28;20043;-61
2023/12/28 05:49:06;;;;;;;30.75;12.77;;;2.40;99.90;;;;;;5056112;28;20029;-61
2023/12/28 05:51:40;;;;;;;28.08;13.32;;;2.40;99.90;;;;;;5055924;28;20463;-62
2023/12/28 05:54:06;;;;;;;31.38;13.88;;;2.40;99.90;;;;;;5056078;28;20033;-61
2023/12/28 05:56:32;;;;;;;37.83;15.23;;;2.50;99.90;;;;;;5055953;28;20025;-61
2023/12/28 05:58:57;;;;;;;36.53;14.88;;;2.50;99.90;;;;;;5055843;28;20062;-61
2023/12/28 06:01:23;;;;;;;44.17;15.00;;;2.50;99.90;;;;;;5055862;28;20025;-61
2023/12/28 06:03:52;;;;;;;49.30;16.40;;;2.50;99.90;;;;;;5055821;28;20024;-61
2023/12/28 06:06:18;;;;;;;35.45;15.57;;;2.70;99.90;;;;;;5055765;28;20025;-61
2023/12/28 06:08:44;;;;;;;76.63;16.90;;;2.60;99.90;;;;;;5055497;28;20037;-61
2023/12/28 06:11:10;;;;;;;69.57;16.00;;;2.60;99.90;;;;;;5055721;28;20086;-61
2023/12/28 06:13:36;;;;;;;92.25;15.85;;;2.60;99.90;;;;;;5055635;28;20101;-61
2023/12/28 06:16:01;;;;;;;63.80;16.38;;;2.50;99.90;;;;;;5055238;28;20456;-61
2023/12/28 06:18:27;;;;;;;53.17;14.35;;;2.60;99.90;;;;;;5055720;28;20032;-61
2023/12/28 06:20:52;;;;;;;35.35;13.45;;;2.50;99.90;;;;;;5055754;28;20036;-61
2023/12/28 06:23:18;;;;;;;39.35;14.75;;;2.50;99.90;;;;;;5055441;28;20035;-61
2023/12/28 06:25:44;;;;;;;80.28;15.10;;;2.60;99.90;;;;;;5054155;28;20115;-61
2023/12/28 06:28:10;;;;;;;49.95;14.00;;;2.50;99.90;;;;;;5055403;28;20468;-61
2023/12/28 06:30:35;;;;;;;53.33;16.30;;;2.40;99.90;;;;;;5055492;28;20032;-61
2023/12/28 06:33:01;;;;;;;57.33;14.48;;;2.40;99.90;;;;;;5055295;28;20029;-61
2023/12/28 06:35:26;;;;;;;72.82;15.90;;;2.50;99.90;;;;;;5054869;28;20024;-61
2023/12/28 06:37:52;;;;;;;56.88;14.25;;;2.40;99.90;;;;;;5055445;28;20033;-62
2023/12/28 06:40:18;;;;;;;67.35;13.60;;;2.40;99.90;;;;;;5055007;28;20494;-66
2023/12/28 06:42:43;;;;;;;71.18;13.13;;;2.30;99.90;;;;;;5055087;28;20036;-61
2023/12/28 06:45:10;;;;;;;62.35;12.18;;;2.60;99.90;;;;;;5055359;28;20025;-61
2023/12/28 06:47:36;;;;;;;40.67;12.68;;;2.20;99.90;;;;;;5055311;28;20021;-61
2023/12/28 06:50:01;;;;;;;66.78;12.98;;;2.20;99.90;;;;;;5053723;28;20422;-61
2023/12/28 06:52:27;;;;;;;76.93;13.32;;;2.10;99.90;;;;;;5054601;28;20049;-61
2023/12/28 06:54:53;;;;;;;62.60;14.13;;;2.00;99.90;;;;;;5054884;28;20077;-61
2023/12/28 06:57:19;;;;;;;54.88;13.40;;;1.90;99.90;;;;;;5054887;28;20029;-61
2023/12/28 06:59:44;;;;;;;39.42;14.52;;;2.10;99.90;;;;;;5054495;28;20100;-61
2023/12/28 07:02:10;;;;;;;106.53;17.55;;;1.90;99.90;;;;;;5053753;28;20028;-61
2023/12/28 07:04:36;;;;;;;84.43;15.10;;;2.00;99.90;;;;;;5054443;28;20025;-61
2023/12/28 07:07:02;;;;;;;55.03;14.10;;;2.00;99.90;;;;;;5054869;28;20480;-61
2023/12/28 07:09:27;;;;;;;184.05;19.42;;;2.00;99.90;;;;;;5054228;28;20108;-61
2023/12/28 07:11:53;;;;;;;60.70;14.45;;;2.00;99.90;;;;;;5053337;28;20025;-61
2023/12/28 07:14:18;;;;;;;40.75;14.48;;;2.00;99.90;;;;;;5055934;28;20029;-62
2023/12/28 07:16:45;;;;;;;133.90;15.52;;;2.10;99.90;;;;;;5055688;28;20031;-62
2023/12/28 07:19:10;;;;;;;44.92;14.27;;;2.10;99.90;;;;;;5055269;28;20083;-62
2023/12/28 07:21:36;;;;;;;48.53;15.02;;;2.10;99.90;;;;;;5054856;28;20017;-62
2023/12/28 07:24:02;;;;;;;58.40;13.52;;;2.20;99.90;;;;;;5053330;28;20025;-61
2023/12/28 07:26:27;;;;;;;56.72;14.60;;;2.30;99.90;;;;;;5053768;28;20033;-62
2023/12/28 07:28:54;;;;;;;98.32;15.82;;;2.30;99.90;;;;;;5055641;28;20033;-64
2023/12/28 07:31:27;;;;;;;50.72;13.15;;;2.40;99.90;;;;;;5055645;28;20432;-62
2023/12/28 07:33:53;;;;;;;45.90;14.00;;;2.30;99.90;;;;;;5055087;28;20032;-62
2023/12/28 07:36:20;;;;;;;162.73;17.95;;;2.30;99.90;;;;;;5054812;28;20029;-62
2023/12/28 07:38:45;;;;;;;111.20;17.30;;;2.20;99.90;;;;;;5054535;28;20037;-62
2023/12/28 07:41:11;;;;;;;72.38;12.85;;;2.20;99.90;;;;;;5053019;28;20085;-61
2023/12/28 07:43:36;;;;;;;47.50;13.77;;;2.20;99.90;;;;;;5054481;28;20033;-62
2023/12/28 07:46:02;;;;;;;101.25;13.82;;;2.20;99.90;;;;;;5054052;28;20024;-62
2023/12/28 07:48:31;;;;;;;53.88;13.88;;;2.20;99.90;;;;;;5054458;28;20072;-61
2023/12/28 07:50:57;;;;;;;48.13;13.32;;;2.30;99.90;;;;;;5053967;28;20021;-61
2023/12/28 07:53:23;;;;;;;32.28;14.00;;;2.30;99.90;;;;;;5054024;28;20448;-61
2023/12/28 07:55:48;;;;;;;77.97;16.50;;;2.60;99.90;;;;;;5053449;28;20025;-61
2023/12/28 07:58:15;;;;;;;111.95;14.63;;;2.30;99.90;;;;;;5053652;28;20547;-61
2023/12/28 08:00:40;;;;;;;42.00;14.20;;;2.30;99.90;;;;;;5053513;28;20397;-61
2023/12/28 08:03:22;;;;;;;60.10;15.95;;;2.40;99.90;;;;;;5054282;28;20036;-61
2023/12/28 08:05:47;;;;;;;90.03;16.02;;;2.40;99.90;;;;;;5053804;28;20029;-61
2023/12/28 08:08:13;;;;;;;123.00;16.83;;;2.40;99.90;;;;;;5053961;28;20074;-61
2023/12/28 08:10:38;;;;;;;92.18;16.67;;;2.40;99.90;;;;;;5054005;28;20025;-62
2023/12/28 08:13:04;;;;;;;89.85;15.73;;;2.50;99.90;;;;;;5053803;28;20103;-61
2023/12/28 08:15:29;;;;;;;179.77;18.05;;;2.50;99.90;;;;;;5052679;28;20074;-61
2023/12/28 08:17:55;;;;;;;81.93;16.05;;;2.50;99.90;;;;;;5053716;28;20033;-61
2023/12/28 08:20:21;;;;;;;122.53;16.98;;;2.50;99.90;;;;;;5053479;28;20061;-61
2023/12/28 08:22:46;;;;;;;84.53;16.88;;;2.70;99.90;;;;;;5053502;28;20107;-61
2023/12/28 08:25:12;;;;;;;72.65;16.80;;;2.80;99.90;;;;;;5054023;28;20450;-61
2023/12/28 08:27:38;;;;;;;119.88;18.25;;;2.80;99.90;;;;;;5052314;28;20029;-61
2023/12/28 08:30:05;;;;;;;64.45;16.60;;;2.90;99.90;;;;;;5053253;28;20035;-61
2023/12/28 08:32:30;;;;;;;94.40;18.15;;;3.00;99.90;;;;;;5053468;28;20024;-62
2023/12/28 08:34:56;;;;;;;46.05;16.88;;;3.20;99.90;;;;;;5053476;28;20033;-62
2023/12/28 08:37:22;;;;;;;63.85;17.83;;;3.20;99.90;;;;;;5052427;28;20032;-62
2023/12/28 08:39:48;;;;;;;55.35;15.30;;;3.20;99.90;;;;;;5057072;28;20430;-62
2023/12/28 08:42:13;;;;;;;69.28;14.68;;;4.70;99.90;;;;;;5054731;28;20055;-62
2023/12/28 08:44:39;;;;;;;56.60;15.80;;;3.40;99.90;;;;;;5056040;28;20078;-62
2023/12/28 08:47:05;;;;;;;76.63;16.95;;;3.40;99.90;;;;;;5057472;28;20029;-62
2023/12/28 08:49:30;;;;;;;80.88;16.45;;;3.50;99.90;;;;;;5056001;28;20500;-62
2023/12/28 08:51:56;;;;;;;90.63;16.13;;;3.60;99.90;;;;;;5055745;28;20045;-62
2023/12/28 08:54:21;;;;;;;77.28;16.88;;;3.60;99.90;;;;;;5057478;28;20025;-62
2023/12/28 08:56:48;;;;;;;39.35;14.90;;;3.60;99.90;;;;;;5055856;28;20112;-62
2023/12/28 08:59:13;;;;;;;39.35;16.23;;;3.60;99.90;;;;;;5057027;28;20032;-62
2023/12/28 09:01:39;;;;;;;35.13;15.88;;;3.60;99.90;;;;;;5056767;28;20468;-62
2023/12/28 09:04:05;;;;;;;51.90;15.15;;;3.70;99.90;;;;;;5055402;28;20057;-62
2023/12/28 09:06:30;;;;;;;36.22;13.73;;;3.80;99.90;;;;;;5057151;28;20053;-62
2023/12/28 09:08:56;;;;;;;36.42;14.98;;;3.70;99.90;;;;;;5057174;28;20040;-62
2023/12/28 09:11:22;;;;;;;44.10;13.43;;;3.60;99.90;;;;;;5055544;28;20452;-62
2023/12/28 09:13:48;;;;;;;27.77;14.00;;;3.70;99.90;;;;;;5056478;28;20029;-62
2023/12/28 09:16:14;;;;;;;30.70;15.02;;;3.70;99.90;;;;;;5056582;28;20082;-62
2023/12/28 09:18:41;;;;;;;35.60;14.75;;;3.90;99.90;;;;;;5056604;28;20064;-62
2023/12/28 09:21:07;;;;;;;33.22;15.93;;;4.00;99.90;;;;;;5056638;28;20031;-62
2023/12/28 09:23:34;;;;;;;56.92;17.80;;;4.00;99.90;;;;;;5056664;28;20488;-62
2023/12/28 09:26:00;;;;;;;45.78;16.40;;;4.10;99.90;;;;;;5056586;28;20060;-62
2023/12/28 09:28:26;;;;;;;37.78;15.70;;;4.00;99.90;;;;;;5056241;28;20029;-62
2023/12/28 09:30:52;;;;;;;36.35;15.88;;;4.10;99.90;;;;;;5055486;28;20028;-62
2023/12/28 09:33:17;;;;;;;46.53;17.08;;;4.10;99.90;;;;;;5056421;28;20445;-62
2023/12/28 09:35:43;;;;;;;47.20;16.77;;;4.10;99.90;;;;;;5056092;28;20033;-62
2023/12/28 09:38:09;;;;;;;39.53;15.13;;;4.10;99.90;;;;;;5055434;28;20074;-62
2023/12/28 09:40:41;;;;;;;33.40;16.40;;;4.10;99.90;;;;;;5055010;28;20171;-62
2023/12/28 09:43:26;;;;;;;36.50;16.92;;;4.20;99.90;;;;;;5055051;28;20072;-62
2023/12/28 09:45:52;;;;;;;36.30;17.40;;;4.20;99.90;;;;;;5054607;28;20029;-62
2023/12/28 09:48:19;;;;;;;35.10;16.80;;;4.40;99.90;;;;;;5056088;28;20108;-62
2023/12/28 09:50:55;;;;;;;32.95;15.95;;;4.40;99.90;;;;;;5054998;28;20461;-62
2023/12/28 09:53:22;;;;;;;36.78;16.73;;;4.40;99.90;;;;;;5055905;28;20045;-62
2023/12/28 09:55:49;;;;;;;30.02;14.23;;;4.40;99.90;;;;;;5055973;28;20032;-62
2023/12/28 09:58:17;;;;;;;35.25;16.77;;;4.40;99.90;;;;;;5056286;28;20032;-62
2023/12/28 10:00:47;;;;;;;29.20;14.65;;;4.30;99.90;;;;;;5055892;28;20033;-62
2023/12/28 10:03:14;;;;;;;33.72;15.98;;;4.40;99.90;;;;;;5054583;28;20029;-62
2023/12/28 10:05:45;;;;;;;35.55;15.65;;;4.50;99.90;;;;;;5055838;28;20048;-62
2023/12/28 10:08:14;;;;;;;28.48;14.73;;;4.50;99.90;;;;;;5055530;28;20032;-62
2023/12/28 10:10:41;;;;;;;25.58;13.48;;;4.50;99.90;;;;;;5055980;28;20025;-62
2023/12/28 10:13:07;;;;;;;31.23;15.13;;;4.50;99.90;;;;;;5054461;28;20079;-62
2023/12/28 10:15:34;;;;;;;32.58;15.63;;;4.50;99.90;;;;;;5055705;28;20039;-62
2023/12/28 10:18:00;;;;;;;34.92;15.32;;;4.50;99.90;;;;;;5055600;28;20112;-62
2023/12/28 10:20:29;;;;;;;35.75;15.70;;;4.60;99.90;;;;;;5055593;28;20116;-62
2023/12/28 10:22:54;;;;;;;;;;;4.70;99.90;;;;;;5055938;28;20025;-62
2023/12/28 10:25:20;;;;;;;35.60;16.02;;;4.80;99.90;;;;;;5054251;28;19955;-62
2023/12/28 10:27:49;;;;;;;33.72;16.17;;;4.90;99.90;;;;;;5055438;28;20057;-62
2023/12/28 10:30:15;;;;;;;34.83;16.48;;;4.90;99.90;;;;;;5055027;28;20029;-62
2023/12/28 10:32:41;;;;;;;33.58;16.48;;;4.90;99.90;;;;;;5054206;28;20036;-62
2023/12/28 10:35:08;;;;;;;37.05;16.45;;;4.90;99.90;;;;;;5037426;28;20056;-62
2023/12/28 10:37:35;;;;;;;34.55;16.20;;;5.10;99.90;;;;;;5055449;28;20060;-62
2023/12/28 10:40:08;;;;;;;32.47;16.98;;;5.10;99.90;;;;;;5055318;28;20033;-62
2023/12/28 10:42:42;;;;;;;32.80;15.10;;;5.10;99.90;;;;;;5055299;28;20017;-62
2023/12/28 10:45:10;;;;;;;31.00;15.73;;;5.20;99.90;;;;;;5055359;28;20044;-62
2023/12/28 10:47:43;;;;;;;31.77;15.35;;;5.10;99.90;;;;;;5055265;28;20082;-62
2023/12/28 10:50:11;;;;;;;32.60;16.42;;;5.20;99.90;;;;;;5054936;28;20033;-62
2023/12/28 10:52:39;;;;;;;32.50;15.18;;;5.30;99.90;;;;;;5054694;28;20044;-62
2023/12/28 10:55:20;;;;;;;33.78;15.80;;;5.30;99.90;;;;;;5054572;28;20032;-62
2023/12/28 10:58:30;;;;;;;29.55;15.40;;;5.40;99.90;;;;;;5054739;28;20025;-62
2023/12/28 11:01:02;;;;;;;34.53;16.02;;;5.40;99.90;;;;;;5041497;28;20049;-62
2023/12/28 11:03:34;;;;;;;30.05;14.23;;;5.50;99.90;;;;;;5054848;28;20051;-62
2023/12/28 11:06:02;;;;;;;27.70;13.68;;;5.50;99.90;;;;;;5054724;28;20063;-62
2023/12/28 11:08:29;;;;;;;33.42;15.15;;;5.50;99.90;;;;;;5053342;28;20384;-62
2023/12/28 11:10:56;;;;;;;26.98;14.82;;;5.50;99.90;;;;;;5054802;28;20070;-62
2023/12/28 11:13:23;;;;;;;27.05;14.35;;;5.60;99.90;;;;;;5053352;28;20021;-62
2023/12/28 11:15:50;;;;;;;25.83;14.73;;;5.70;99.90;;;;;;5054608;28;20037;-62
2023/12/28 11:18:17;;;;;;;25.83;14.10;;;5.70;99.90;;;;;;5054497;28;20113;-62
2023/12/28 11:20:44;;;;;;;31.23;14.80;;;5.70;99.90;;;;;;5053019;28;20039;-62
2023/12/28 11:23:11;;;;;;;32.55;15.40;;;5.70;99.90;;;;;;5054333;28;20021;-62
2023/12/28 11:25:37;;;;;;;29.30;15.43;;;5.70;99.90;;;;;;5053158;28;20087;-62
2023/12/28 11:28:12;;;;;;;31.73;15.02;;;5.60;99.90;;;;;;5054488;28;20443;-62
2023/12/28 11:30:47;;;;;;;27.52;14.20;;;5.70;99.90;;;;;;5053112;28;20064;-62
2023/12/28 11:33:12;;;;;;;28.30;13.95;;;5.70;99.90;;;;;;5052960;28;20430;-62
2023/12/28 11:35:41;;;;;;;29.13;15.23;;;5.70;99.90;;;;;;5053881;28;20113;-62
2023/12/28 11:38:10;;;;;;;27.20;14.02;;;5.80;99.90;;;;;;5054167;28;20024;-62
2023/12/28 11:40:50;;;;;;;27.13;13.93;;;5.90;99.90;;;;;;5054017;28;20066;-62
2023/12/28 11:43:20;;;;;;;30.67;14.88;;;6.00;99.90;;;;;;5052866;28;20115;-62
2023/12/28 11:45:50;;;;;;;26.20;15.15;;;6.10;99.90;;;;;;5053028;28;20111;-62
2023/12/28 11:48:25;;;;;;;24.88;14.30;;;6.10;99.90;;;;;;5053976;28;20074;-62
2023/12/28 11:50:53;;;;;;;31.33;13.38;;;6.20;99.90;;;;;;5052510;28;20455;-62
2023/12/28 11:53:20;;;;;;;25.50;13.43;;;6.30;99.90;;;;;;5054972;28;20128;-63
2023/12/28 11:55:46;;;;;;;31.73;15.02;;;6.40;99.90;;;;;;5053820;28;20481;-62
2023/12/28 11:58:12;;;;;;;28.95;13.93;;;6.50;99.90;;;;;;5054422;28;20040;-62
2023/12/28 12:00:37;;;;;;;27.30;14.27;;;6.30;99.90;;;;;;5054696;28;20037;-63
2023/12/28 12:03:03;;;;;;;25.77;13.43;;;6.30;99.90;;;;;;5054965;28;20078;-62
2023/12/28 12:05:29;;;;;;;25.27;13.45;;;6.40;99.90;;;;;;5054443;28;20033;-62
2023/12/28 12:07:55;;;;;;;29.63;13.88;;;6.30;99.90;;;;;;5053338;28;20033;-67
2023/12/28 12:10:21;;;;;;;25.67;14.23;;;6.40;99.90;;;;;;5053887;28;20128;-62
2023/12/28 12:12:47;;;;;;;30.20;14.50;;;6.40;99.90;;;;;;5053611;28;20024;-62
2023/12/28 12:15:13;;;;;;;26.38;13.40;;;6.40;99.90;;;;;;5053599;28;20364;-62
2023/12/28 12:17:39;;;;;;;26.17;14.35;;;6.40;99.90;;;;;;5052307;28;20409;-62
2023/12/28 12:20:05;;;;;;;24.60;13.32;;;6.50;99.90;;;;;;5053740;28;20082;-62
2023/12/28 12:22:32;;;;;;;27.35;14.20;;;6.60;99.90;;;;;;5053993;28;20048;-64
2023/12/28 12:25:03;;;;;;;21.95;13.65;;;6.80;99.90;;;;;;5053949;28;20469;-62
2023/12/28 12:27:29;;;;;;;23.48;12.85;;;6.80;99.90;;;;;;5053747;28;20115;-62
2023/12/28 12:29:55;;;;;;;25.98;14.35;;;6.90;99.90;;;;;;5052258;28;20064;-63
2023/12/28 12:32:21;;;;;;;24.23;13.52;;;7.10;99.90;;;;;;5053541;28;20075;-62
2023/12/28 12:34:47;;;;;;;27.10;13.90;;;7.40;99.90;;;;;;5052148;28;20543;-62
2023/12/28 12:37:13;;;;;;;26.38;13.52;;;7.50;99.90;;;;;;5052264;28;20112;-62